createdAt,value
2022-11-03T00:01:45.250Z,8.90
2022-11-03T00:04:13.599Z,8.85
2022-11-03T00:06:41.645Z,8.94
2022-11-03T00:09:10.582Z,8.93
2022-11-03T00:11:39.579Z,8.91
2022-11-03T00:14:07.360Z,8.90
2022-11-03T00:16:34.125Z,8.90
2022-11-03T00:19:01.142Z,9.00
2022-11-03T00:21:28.046Z,8.96
2022-11-03T00:23:54.810Z,8.87
2022-11-03T00:26:27.803Z,8.90
2022-11-03T00:28:56.209Z,8.97
2022-11-03T00:31:26.982Z,9.02
2022-11-03T00:33:54.407Z,8.89
2022-11-03T00:36:35.428Z,8.88
2022-11-03T00:39:02.540Z,8.82
2022-11-03T00:41:29.319Z,8.81
2022-11-03T00:43:55.985Z,8.76
2022-11-03T00:46:23.816Z,8.75
2022-11-03T00:48:50.740Z,8.74
2022-11-03T00:51:23.043Z,8.71
2022-11-03T00:53:57.719Z,8.76
2022-11-03T00:56:29.967Z,8.89
2022-11-03T00:58:58.753Z,8.89
2022-11-03T01:01:33.224Z,8.92
2022-11-03T01:04:18.615Z,8.99
2022-11-03T01:06:50.845Z,9.05
2022-11-03T01:09:31.745Z,9.03
2022-11-03T01:14:51.668Z,8.83
2022-11-03T01:17:19.680Z,8.82
2022-11-03T01:19:47.233Z,8.88
2022-11-03T01:22:15.609Z,8.75
2022-11-03T01:24:43.323Z,8.71
2022-11-03T01:27:13.349Z,8.62
2022-11-03T01:29:40.401Z,8.64
2022-11-03T01:32:08.619Z,8.56
2022-11-03T01:34:35.624Z,8.50
2022-11-03T01:37:02.435Z,8.54
2022-11-03T01:39:29.102Z,8.56
2022-11-03T01:41:56.070Z,8.59
2022-11-03T01:44:22.656Z,8.62
2022-11-03T01:47:03.006Z,8.59
2022-11-03T01:49:31.942Z,8.68
2022-11-03T01:52:10.875Z,8.67
2022-11-03T01:54:39.279Z,8.63
2022-11-03T01:57:11.885Z,8.64
2022-11-03T01:59:40.024Z,8.49
2022-11-03T02:02:06.879Z,8.55
2022-11-03T02:04:34.970Z,8.51
2022-11-03T02:07:25.207Z,8.50
2022-11-03T02:09:52.178Z,8.51
2022-11-03T02:12:21.311Z,8.51
2022-11-03T02:15:19.878Z,8.45
2022-11-03T02:17:47.979Z,8.43
2022-11-03T02:20:33.051Z,8.42
2022-11-03T02:23:10.749Z,8.36
2022-11-03T02:25:43.519Z,8.33
2022-11-03T02:28:12.210Z,8.39
2022-11-03T02:30:44.894Z,8.52
2022-11-03T02:33:17.348Z,8.29
2022-11-03T02:35:55.287Z,8.32
2022-11-03T02:38:26.881Z,8.11
2022-11-03T02:40:55.745Z,8.04
2022-11-03T02:43:25.584Z,8.00
2022-11-03T02:45:53.143Z,7.93
2022-11-03T02:48:19.970Z,7.95
2022-11-03T02:50:49.121Z,7.47
2022-11-03T02:53:16.735Z,7.81
2022-11-03T02:55:59.965Z,7.68
2022-11-03T02:58:45.722Z,7.67
2022-11-03T03:01:35.185Z,7.64
2022-11-03T03:04:06.660Z,7.86
2022-11-03T03:06:42.593Z,7.92
2022-11-03T03:09:14.237Z,8.06
2022-11-03T03:11:43.731Z,7.94
2022-11-03T03:14:14.587Z,7.86
2022-11-03T03:16:48.233Z,7.95
2022-11-03T03:19:23.487Z,7.83
2022-11-03T03:21:54.722Z,7.84
2022-11-03T03:24:33.330Z,7.84
2022-11-03T03:27:02.657Z,7.94
2022-11-03T03:29:36.512Z,7.84
2022-11-03T03:32:08.086Z,7.90
2022-11-03T03:34:37.686Z,7.85
2022-11-03T03:37:06.599Z,7.95
2022-11-03T03:39:36.819Z,7.99
2022-11-03T03:42:05.753Z,8.01
2022-11-03T03:44:33.471Z,7.96
2022-11-03T03:47:04.195Z,7.98
2022-11-03T03:49:30.770Z,7.91
2022-11-03T03:51:57.804Z,7.75
2022-11-03T03:54:24.730Z,7.55
2022-11-03T03:57:00.340Z,7.67
2022-11-03T03:59:26.900Z,7.79
2022-11-03T04:01:53.689Z,7.96
2022-11-03T04:04:20.381Z,8.01
2022-11-03T04:06:47.280Z,8.07
2022-11-03T04:09:14.106Z,8.01
2022-11-03T04:11:59.159Z,7.89
2022-11-03T04:14:44.530Z,7.84
2022-11-03T04:17:39.214Z,7.74
2022-11-03T04:20:30.991Z,7.67
2022-11-03T04:22:57.588Z,7.71
2022-11-03T04:25:24.152Z,7.79
2022-11-03T04:27:51.286Z,7.80
2022-11-03T04:30:20.169Z,7.85
2022-11-03T04:32:48.847Z,7.79
2022-11-03T04:35:26.574Z,7.83
2022-11-03T04:38:03.777Z,7.80
2022-11-03T04:40:30.669Z,7.80
2022-11-03T04:42:57.959Z,7.80
2022-11-03T04:45:30.179Z,7.83
2022-11-03T04:47:59.513Z,7.92
2022-11-03T04:50:26.314Z,7.95
2022-11-03T04:52:57.237Z,7.98
2022-11-03T04:55:24.284Z,8.03
2022-11-03T04:57:57.095Z,7.94
2022-11-03T05:00:24.036Z,7.90
2022-11-03T05:02:55.881Z,7.71
2022-11-03T05:05:26.530Z,7.66
2022-11-03T05:07:56.801Z,7.57
2022-11-03T05:10:28.261Z,7.65
2022-11-03T05:12:56.115Z,7.61
2022-11-03T05:15:33.084Z,7.66
2022-11-03T05:18:01.653Z,7.65
2022-11-03T05:20:45.282Z,7.55
2022-11-03T05:23:12.530Z,7.45
2022-11-03T05:25:42.329Z,7.37
2022-11-03T05:28:20.134Z,7.46
2022-11-03T05:30:48.759Z,7.53
2022-11-03T05:33:35.296Z,7.50
2022-11-03T05:36:12.602Z,7.46
2022-11-03T05:38:39.228Z,7.44
2022-11-03T05:44:22.119Z,7.13
2022-11-03T05:46:48.739Z,7.33
2022-11-03T05:49:15.474Z,7.38
2022-11-03T05:51:44.881Z,7.52
2022-11-03T05:54:27.713Z,7.50
2022-11-03T05:56:56.909Z,7.39
2022-11-03T05:59:26.949Z,7.29
2022-11-03T06:01:54.435Z,7.44
2022-11-03T06:04:32.870Z,7.39
2022-11-03T06:07:03.312Z,7.27
2022-11-03T06:09:33.810Z,7.00
2022-11-03T06:12:02.464Z,6.94
2022-11-03T06:14:31.404Z,6.90
2022-11-03T06:17:02.126Z,6.73
2022-11-03T06:19:40.112Z,7.13
2022-11-03T06:22:18.365Z,6.81
2022-11-03T06:24:45.940Z,6.52
2022-11-03T06:27:16.551Z,6.41
2022-11-03T06:29:51.976Z,6.62
2022-11-03T06:32:18.862Z,6.84
2022-11-03T06:34:57.688Z,6.99
2022-11-03T06:37:34.657Z,7.13
2022-11-03T06:40:21.185Z,7.32
2022-11-03T06:42:47.816Z,7.33
2022-11-03T06:45:20.671Z,7.35
2022-11-03T06:47:47.626Z,7.30
2022-11-03T06:50:33.305Z,7.32
2022-11-03T06:53:04.271Z,7.30
2022-11-03T06:55:41.114Z,7.40
2022-11-03T06:58:17.180Z,7.44
2022-11-03T07:00:48.899Z,7.48
2022-11-03T07:03:30.820Z,7.47
2022-11-03T07:06:21.483Z,7.66
2022-11-03T07:08:50.319Z,7.58
2022-11-03T07:11:22.784Z,7.47
2022-11-03T07:13:56.666Z,7.32
2022-11-03T07:16:40.438Z,7.30
2022-11-03T07:19:18.295Z,7.41
2022-11-03T07:21:48.678Z,7.50
2022-11-03T07:24:27.350Z,7.58
2022-11-03T07:27:25.430Z,7.69
2022-11-03T07:29:54.481Z,7.72
2022-11-03T07:32:24.250Z,7.87
2022-11-03T07:34:53.709Z,7.97
2022-11-03T07:37:22.698Z,8.15
2022-11-03T07:39:51.024Z,8.32
2022-11-03T07:42:22.436Z,8.36
2022-11-03T07:47:25.869Z,9.36
2022-11-03T07:49:52.464Z,9.00
2022-11-03T07:52:27.840Z,8.99
2022-11-03T07:54:59.581Z,8.98
2022-11-03T08:00:10.921Z,9.31
2022-11-03T08:02:46.815Z,9.27
2022-11-03T08:05:13.674Z,9.28
2022-11-03T08:07:40.321Z,9.38
2022-11-03T08:10:07.574Z,9.51
2022-11-03T08:12:34.414Z,9.51
2022-11-03T08:15:01.016Z,9.50
2022-11-03T08:17:27.541Z,9.71
2022-11-03T08:19:54.197Z,9.79
2022-11-03T08:24:52.907Z,9.92
2022-11-03T08:27:19.838Z,10.02
2022-11-03T08:29:46.450Z,10.19
2022-11-03T08:32:13.130Z,10.28
2022-11-03T08:34:39.743Z,10.33
2022-11-03T08:39:37.822Z,10.50
2022-11-03T08:44:37.606Z,10.61
2022-11-03T08:47:04.291Z,10.67
2022-11-03T08:49:30.957Z,10.81
2022-11-03T08:51:57.599Z,10.95
2022-11-03T08:54:24.238Z,11.02
2022-11-03T08:56:50.857Z,11.16
2022-11-03T08:59:18.357Z,11.21
2022-11-03T09:01:45.192Z,11.32
2022-11-03T09:04:11.902Z,11.46
2022-11-03T09:06:38.606Z,11.56
2022-11-03T09:11:51.819Z,11.79
2022-11-03T09:14:18.542Z,11.86
2022-11-03T09:16:45.493Z,11.97
2022-11-03T09:19:12.068Z,12.00
2022-11-03T09:21:38.679Z,12.03
2022-11-03T09:24:07.573Z,12.20
2022-11-03T09:26:34.247Z,12.28
2022-11-03T09:29:00.860Z,12.38
2022-11-03T09:31:29.336Z,12.49
2022-11-03T09:33:56.223Z,12.51
2022-11-03T09:36:22.781Z,12.46
2022-11-03T09:38:49.518Z,12.35
2022-11-03T09:41:27.870Z,12.34
2022-11-03T09:44:02.423Z,12.44
2022-11-03T09:46:30.343Z,12.36
2022-11-03T09:51:28.865Z,12.31
2022-11-03T09:54:04.771Z,12.31
2022-11-03T09:56:32.153Z,12.33
2022-11-03T09:59:00.170Z,12.38
2022-11-03T10:01:27.434Z,12.44
2022-11-03T10:03:58.015Z,12.44
2022-11-03T10:06:24.601Z,12.49
2022-11-03T10:08:51.201Z,12.56
2022-11-03T10:11:18.043Z,12.51
2022-11-03T10:13:53.947Z,12.50
2022-11-03T10:16:24.498Z,12.47
2022-11-03T10:18:51.390Z,12.48
2022-11-03T10:21:19.078Z,12.43
2022-11-03T10:23:45.712Z,12.55
2022-11-03T10:26:18.859Z,12.51
2022-11-03T10:32:30.388Z,12.67
2022-11-03T10:34:56.984Z,12.73
2022-11-03T10:37:25.805Z,12.72
2022-11-03T10:39:54.339Z,12.68
2022-11-03T10:42:23.164Z,12.68
2022-11-03T10:45:17.579Z,12.70
2022-11-03T10:47:44.813Z,12.79
2022-11-03T10:50:22.658Z,12.84
2022-11-03T10:52:50.381Z,12.75
2022-11-03T10:55:22.180Z,12.77
2022-11-03T10:57:55.635Z,12.82
2022-11-03T11:00:22.264Z,12.79
2022-11-03T11:05:23.136Z,12.91
2022-11-03T11:07:53.033Z,12.96
2022-11-03T11:10:23.643Z,13.03
2022-11-03T11:13:24.502Z,12.99
2022-11-03T11:16:00.010Z,13.06
2022-11-03T11:18:29.559Z,12.98
2022-11-03T11:20:57.599Z,13.05
2022-11-03T11:23:27.067Z,13.09
2022-11-03T11:26:27.356Z,13.04
2022-11-03T11:29:09.058Z,13.08
2022-11-03T11:31:37.208Z,13.08
2022-11-03T11:34:10.004Z,13.09
2022-11-03T11:36:37.314Z,13.16
2022-11-03T11:39:25.040Z,13.18
2022-11-03T11:42:17.969Z,13.19
2022-11-03T11:44:47.328Z,13.25
2022-11-03T11:47:25.668Z,13.34
2022-11-03T11:50:07.553Z,13.38
2022-11-03T11:53:10.276Z,13.39
2022-11-03T11:55:38.249Z,13.32
2022-11-03T11:58:16.872Z,13.36
2022-11-03T12:00:55.524Z,13.41
2022-11-03T12:03:27.777Z,13.43
2022-11-03T12:05:54.459Z,13.47
2022-11-03T12:08:25.817Z,13.52
2022-11-03T12:10:54.148Z,13.53
2022-11-03T12:13:51.436Z,13.52
2022-11-03T12:19:34.655Z,13.58
2022-11-03T12:22:02.632Z,13.58
2022-11-03T12:24:32.355Z,13.64
2022-11-03T12:27:00.514Z,13.62
2022-11-03T12:29:27.099Z,13.65
2022-11-03T12:31:53.869Z,13.67
2022-11-03T12:34:20.490Z,13.72
2022-11-03T12:36:50.655Z,13.68
2022-11-03T12:39:20.158Z,13.72
2022-11-03T12:41:46.732Z,13.68
2022-11-03T12:44:13.341Z,13.70
2022-11-03T12:46:39.906Z,13.76
2022-11-03T12:49:06.470Z,13.65
2022-11-03T12:51:33.068Z,13.66
2022-11-03T12:53:59.646Z,13.69
2022-11-03T12:56:26.507Z,13.70
2022-11-03T12:58:53.140Z,13.69
2022-11-03T13:01:19.859Z,13.73
2022-11-03T13:03:46.844Z,13.70
2022-11-03T13:06:14.947Z,13.68
2022-11-03T13:08:41.851Z,13.72
2022-11-03T13:11:28.708Z,13.72
2022-11-03T13:13:55.883Z,13.77
2022-11-03T13:16:22.892Z,13.75
2022-11-03T13:18:49.527Z,13.69
2022-11-03T13:21:16.111Z,13.63
2022-11-03T13:23:42.761Z,13.63
2022-11-03T13:26:09.540Z,13.64
2022-11-03T13:28:36.679Z,13.64
2022-11-03T13:31:03.313Z,13.69
2022-11-03T13:33:29.928Z,14.17
2022-11-03T13:35:56.601Z,14.64
2022-11-03T13:38:23.233Z,14.45
2022-11-03T13:40:57.807Z,14.52
2022-11-03T13:46:05.120Z,14.25
2022-11-03T13:51:19.102Z,15.01
2022-11-03T13:59:26.566Z,14.93
2022-11-03T14:07:27.481Z,14.27
2022-11-03T14:09:55.897Z,14.27
2022-11-03T14:12:34.824Z,14.15
2022-11-03T14:17:37.194Z,14.13
2022-11-03T14:20:05.220Z,14.04
2022-11-03T14:22:32.562Z,13.94
2022-11-03T14:24:59.712Z,13.97
2022-11-03T14:27:26.337Z,13.98
2022-11-03T14:32:24.362Z,13.99
2022-11-03T14:34:51.016Z,13.95
2022-11-03T14:37:17.800Z,14.00
2022-11-03T14:39:44.465Z,13.96
2022-11-03T14:42:17.192Z,13.99
2022-11-03T14:44:45.850Z,13.91
2022-11-03T14:47:15.481Z,13.91
2022-11-03T14:49:42.177Z,13.89
2022-11-03T14:52:09.170Z,13.92
2022-11-03T14:54:36.499Z,13.86
2022-11-03T14:57:04.129Z,13.85
2022-11-03T14:59:31.179Z,13.87
2022-11-03T15:01:58.805Z,13.81
2022-11-03T15:04:26.106Z,13.83
2022-11-03T15:06:52.743Z,13.86
2022-11-03T15:09:19.838Z,13.78
2022-11-03T15:11:46.808Z,13.77
2022-11-03T15:14:13.487Z,13.79
2022-11-03T15:16:40.453Z,13.69
2022-11-03T15:19:08.065Z,13.68
2022-11-03T15:21:34.956Z,13.63
2022-11-03T15:26:48.539Z,13.67
2022-11-03T15:29:15.155Z,13.67
2022-11-03T15:31:47.218Z,13.61
2022-11-03T15:34:14.665Z,13.60
2022-11-03T15:36:41.277Z,13.59
2022-11-03T15:39:07.911Z,13.65
2022-11-03T15:41:34.473Z,13.56
2022-11-03T15:44:01.084Z,13.58
2022-11-03T15:46:27.657Z,13.52
2022-11-03T15:48:56.625Z,13.54
2022-11-03T15:51:23.511Z,13.41
2022-11-03T15:53:54.972Z,13.37
2022-11-03T15:56:24.751Z,13.36
2022-11-03T15:58:51.317Z,13.39
2022-11-03T16:01:18.013Z,13.30
2022-11-03T16:03:44.629Z,13.35
2022-11-03T16:06:11.261Z,13.33
2022-11-03T16:08:38.339Z,13.32
2022-11-03T16:11:05.080Z,13.34
2022-11-03T16:13:31.593Z,13.39
2022-11-03T16:15:58.402Z,13.38
2022-11-03T16:18:25.129Z,13.31
2022-11-03T16:20:51.751Z,13.29
2022-11-03T16:23:18.311Z,13.22
2022-11-03T16:25:44.908Z,13.18
2022-11-03T16:28:11.643Z,13.15
2022-11-03T16:30:38.860Z,13.13
2022-11-03T16:33:05.831Z,13.10
2022-11-03T16:35:32.392Z,13.09
2022-11-03T16:37:59.030Z,13.03
2022-11-03T16:40:25.798Z,12.96
2022-11-03T16:42:52.494Z,12.90
2022-11-03T16:45:25.995Z,12.92
2022-11-03T16:47:53.197Z,12.94
2022-11-03T16:50:20.192Z,12.89
2022-11-03T16:52:48.146Z,12.90
2022-11-03T16:55:15.873Z,12.89
2022-11-03T16:57:43.055Z,12.88
2022-11-03T17:00:15.445Z,12.79
2022-11-03T17:02:42.555Z,12.83
2022-11-03T17:07:41.463Z,12.63
2022-11-03T17:12:41.046Z,12.59
2022-11-03T17:15:08.312Z,12.60
2022-11-03T17:17:35.083Z,12.59
2022-11-03T17:20:01.659Z,12.58
2022-11-03T17:22:28.278Z,12.60
2022-11-03T17:24:54.842Z,12.55
2022-11-03T17:27:24.928Z,12.57
2022-11-03T17:29:55.748Z,12.59
2022-11-03T17:32:39.264Z,12.62
2022-11-03T17:35:24.534Z,12.65
2022-11-03T17:37:54.539Z,12.66
2022-11-03T17:40:23.613Z,12.69
2022-11-03T17:42:50.388Z,12.72
2022-11-03T17:45:19.477Z,12.79
2022-11-03T17:47:46.427Z,12.78
2022-11-03T17:50:14.926Z,12.75
2022-11-03T17:52:41.915Z,12.81
2022-11-03T17:55:29.477Z,12.78
2022-11-03T17:57:59.330Z,12.80
2022-11-03T18:00:26.647Z,12.83
2022-11-03T18:02:55.575Z,12.82
2022-11-03T18:05:26.937Z,12.80
2022-11-03T18:07:55.045Z,12.86
2022-11-03T18:10:24.162Z,12.91
2022-11-03T18:13:11.246Z,12.94
2022-11-03T18:15:39.952Z,13.09
2022-11-03T18:18:25.878Z,13.04
2022-11-03T18:20:53.998Z,13.07
2022-11-03T18:23:22.387Z,13.25
2022-11-03T18:25:49.376Z,13.23
2022-11-03T18:28:16.259Z,13.20
2022-11-03T18:30:45.800Z,13.09
2022-11-03T18:33:34.255Z,13.07
2022-11-03T18:36:06.409Z,13.14
2022-11-03T18:38:36.631Z,13.07
2022-11-03T18:41:23.469Z,13.02
2022-11-03T18:43:50.028Z,13.02
2022-11-03T18:46:16.626Z,12.96
2022-11-03T18:48:43.179Z,13.02
2022-11-03T18:51:09.980Z,12.97
2022-11-03T18:53:36.566Z,12.87
2022-11-03T18:56:03.206Z,12.87
2022-11-03T18:58:29.940Z,12.91
2022-11-03T19:00:56.588Z,12.97
2022-11-03T19:03:23.800Z,12.94
2022-11-03T19:05:52.850Z,12.85
2022-11-03T19:08:23.989Z,12.87
2022-11-03T19:10:52.301Z,12.86
2022-11-03T19:13:40.458Z,12.77
2022-11-03T19:18:56.355Z,12.85
2022-11-03T19:21:24.335Z,12.88
2022-11-03T19:23:55.485Z,12.95
2022-11-03T19:26:34.732Z,12.94
2022-11-03T19:29:05.875Z,12.89
2022-11-03T19:31:38.912Z,12.84
2022-11-03T19:34:11.257Z,12.81
2022-11-03T19:36:40.294Z,12.75
2022-11-03T19:39:30.274Z,12.80
2022-11-03T19:42:19.169Z,12.79
2022-11-03T19:44:45.979Z,12.70
2022-11-03T19:47:17.473Z,12.77
2022-11-03T19:49:45.542Z,12.79
2022-11-03T19:52:14.793Z,12.79
2022-11-03T19:54:44.129Z,12.69
2022-11-03T19:57:12.063Z,12.60
2022-11-03T19:59:38.880Z,12.69
2022-11-03T20:02:05.588Z,12.49
2022-11-03T20:04:32.322Z,12.46
2022-11-03T20:06:59.507Z,12.51
2022-11-03T20:12:00.043Z,12.49
2022-11-03T20:14:27.492Z,12.42
2022-11-03T20:16:57.903Z,12.21
2022-11-03T20:19:24.455Z,12.27
2022-11-03T20:21:51.632Z,12.21
2022-11-03T20:24:19.365Z,12.14
2022-11-03T20:26:46.090Z,12.13
2022-11-03T20:29:14.626Z,12.09
2022-11-03T20:31:43.431Z,12.15
2022-11-03T20:34:13.912Z,12.30
2022-11-03T20:36:41.476Z,12.11
2022-11-03T20:39:13.148Z,12.10
2022-11-03T20:41:43.486Z,11.99
2022-11-03T20:44:12.754Z,11.92
2022-11-03T20:46:39.608Z,11.87
2022-11-03T20:49:06.452Z,12.01
2022-11-03T20:51:41.039Z,11.96
2022-11-03T20:54:25.918Z,12.01
2022-11-03T20:56:52.435Z,12.01
2022-11-03T20:59:21.412Z,11.99
2022-11-03T21:01:48.234Z,12.06
2022-11-03T21:04:16.970Z,12.12
2022-11-03T21:06:44.162Z,12.06
2022-11-03T21:09:13.042Z,12.15
2022-11-03T21:14:15.165Z,12.22
2022-11-03T21:17:01.159Z,12.15
2022-11-03T21:19:49.706Z,12.10
2022-11-03T21:22:50.302Z,11.96
2022-11-03T21:27:54.017Z,11.94
2022-11-03T21:30:22.179Z,11.89
2022-11-03T21:32:48.818Z,11.83
2022-11-03T21:35:17.884Z,11.82
2022-11-03T21:37:44.483Z,11.83
2022-11-03T21:40:11.603Z,11.81
2022-11-03T21:42:56.792Z,11.81
2022-11-03T21:45:23.484Z,11.81
2022-11-03T21:48:13.462Z,11.70
2022-11-03T21:50:41.087Z,11.73
2022-11-03T21:53:08.119Z,11.64
2022-11-03T21:55:35.530Z,11.71
2022-11-03T21:58:03.054Z,11.57
2022-11-03T22:00:29.980Z,11.68
2022-11-03T22:02:56.603Z,11.70
2022-11-03T22:05:23.169Z,11.75
2022-11-03T22:07:49.741Z,11.76
2022-11-03T22:10:16.320Z,11.78
2022-11-03T22:12:42.901Z,11.79
2022-11-03T22:15:28.954Z,11.71
2022-11-03T22:18:02.919Z,11.84
2022-11-03T22:20:48.349Z,11.84
2022-11-03T22:23:34.237Z,11.71
2022-11-03T22:26:20.045Z,11.70
2022-11-03T22:29:06.588Z,11.60
2022-11-03T22:31:42.202Z,11.69
2022-11-03T22:34:27.652Z,11.71
2022-11-03T22:39:50.113Z,11.77
2022-11-03T22:42:35.131Z,11.80
2022-11-03T22:45:20.394Z,11.80
2022-11-03T22:47:46.995Z,11.81
2022-11-03T22:50:13.629Z,11.78
2022-11-03T22:52:40.256Z,11.65
2022-11-03T22:55:07.151Z,11.77
2022-11-03T22:57:33.740Z,11.76
2022-11-03T23:00:00.303Z,11.69
2022-11-03T23:02:26.948Z,11.69
2022-11-03T23:04:53.539Z,11.67
2022-11-03T23:07:20.096Z,11.66
2022-11-03T23:09:46.683Z,11.69
2022-11-03T23:12:13.444Z,11.67
2022-11-03T23:14:58.443Z,11.73
2022-11-03T23:17:45.009Z,11.79
2022-11-03T23:20:30.130Z,11.77
2022-11-03T23:22:56.698Z,11.67
2022-11-03T23:25:23.373Z,11.68
2022-11-03T23:27:49.999Z,11.69
2022-11-03T23:30:16.562Z,11.77
2022-11-03T23:32:43.163Z,11.69
2022-11-03T23:35:10.631Z,11.67
2022-11-03T23:37:37.254Z,11.63
2022-11-03T23:40:04.273Z,11.63
2022-11-03T23:42:30.834Z,11.60
2022-11-03T23:45:16.247Z,11.59
2022-11-03T23:48:01.451Z,11.47
2022-11-03T23:50:28.085Z,11.54
2022-11-03T23:52:54.656Z,11.49
2022-11-03T23:55:21.208Z,11.52
2022-11-03T23:58:06.492Z,11.48
